createdAt,value
2022-08-25T00:01:34.322Z,20.67
2022-08-25T00:04:03.635Z,14.50
2022-08-25T00:06:30.846Z,14.15
2022-08-25T00:08:59.763Z,12.88
2022-08-25T00:11:29.523Z,17.08
2022-08-25T00:14:00.445Z,15.73
2022-08-25T00:16:27.938Z,16.65
2022-08-25T00:18:58.134Z,19.52
2022-08-25T00:21:25.469Z,14.02
2022-08-25T00:23:52.151Z,19.20
2022-08-25T00:26:18.955Z,19.52
2022-08-25T00:28:45.822Z,17.00
2022-08-25T00:31:15.038Z,17.73
2022-08-25T00:33:43.034Z,17.23
2022-08-25T00:36:12.259Z,21.95
2022-08-25T00:38:40.473Z,16.83
2022-08-25T00:41:11.167Z,19.50
2022-08-25T00:43:48.072Z,16.60
2022-08-25T00:46:18.622Z,19.35
2022-08-25T00:48:50.674Z,19.20
2022-08-25T00:51:24.308Z,20.27
2022-08-25T00:53:51.277Z,18.77
2022-08-25T00:56:18.686Z,20.23
2022-08-25T00:58:48.146Z,19.23
2022-08-25T01:01:14.665Z,18.88
2022-08-25T01:03:41.205Z,17.05
2022-08-25T01:06:10.126Z,19.15
2022-08-25T01:08:36.927Z,16.85
2022-08-25T01:11:08.844Z,17.17
2022-08-25T01:13:40.045Z,19.35
2022-08-25T01:18:44.786Z,18.90
2022-08-25T01:21:11.298Z,20.20
2022-08-25T01:23:38.554Z,21.10
2022-08-25T01:26:13.091Z,22.13
2022-08-25T01:29:01.854Z,21.20
2022-08-25T01:31:29.496Z,17.52
2022-08-25T01:33:58.339Z,15.35
2022-08-25T01:36:26.822Z,18.20
2022-08-25T01:38:53.625Z,16.95
2022-08-25T01:41:46.304Z,18.48
2022-08-25T01:44:16.662Z,17.02
2022-08-25T01:46:43.426Z,17.13
2022-08-25T01:49:10.565Z,21.33
2022-08-25T01:51:48.977Z,17.73
2022-08-25T01:54:15.462Z,15.40
2022-08-25T01:56:41.949Z,19.05
2022-08-25T01:59:09.411Z,20.00
2022-08-25T02:01:35.951Z,19.48
2022-08-25T02:04:02.650Z,21.30
2022-08-25T02:06:33.205Z,20.65
2022-08-25T02:09:05.189Z,17.77
2022-08-25T02:11:32.865Z,17.88
2022-08-25T02:13:59.902Z,17.73
2022-08-25T02:16:31.611Z,19.20
2022-08-25T02:18:59.358Z,18.73
2022-08-25T02:21:26.389Z,23.58
2022-08-25T02:23:53.409Z,17.90
2022-08-25T02:26:20.018Z,18.65
2022-08-25T02:28:47.641Z,22.20
2022-08-25T02:31:14.903Z,18.48
2022-08-25T02:33:41.450Z,19.83
2022-08-25T02:36:09.086Z,25.17
2022-08-25T02:38:36.526Z,18.30
2022-08-25T02:41:11.836Z,25.05
2022-08-25T02:43:39.621Z,19.30
2022-08-25T02:46:06.268Z,19.58
2022-08-25T02:48:33.597Z,22.30
2022-08-25T02:51:01.572Z,23.00
2022-08-25T02:53:29.536Z,21.20
2022-08-25T02:55:57.156Z,20.08
2022-08-25T02:58:24.363Z,19.90
2022-08-25T03:00:51.001Z,20.75
2022-08-25T03:03:18.404Z,22.15
2022-08-25T03:05:46.300Z,22.58
2022-08-25T03:08:15.669Z,21.17
2022-08-25T03:10:42.328Z,24.13
2022-08-25T03:13:08.793Z,26.65
2022-08-25T03:15:37.990Z,23.73
2022-08-25T03:18:06.537Z,21.60
2022-08-25T03:20:35.639Z,24.90
2022-08-25T03:23:02.971Z,23.73
2022-08-25T03:25:48.268Z,23.20
2022-08-25T03:28:14.762Z,26.58
2022-08-25T03:30:42.211Z,31.17
2022-08-25T03:33:08.677Z,25.90
2022-08-25T03:35:35.128Z,26.58
2022-08-25T03:38:02.360Z,33.35
2022-08-25T03:40:29.010Z,29.48
2022-08-25T03:42:56.739Z,33.80
2022-08-25T03:45:24.069Z,30.55
2022-08-25T03:47:51.454Z,39.58
2022-08-25T03:50:19.790Z,32.97
2022-08-25T03:52:51.186Z,30.90
2022-08-25T03:55:17.659Z,38.25
2022-08-25T03:57:44.472Z,37.03
2022-08-25T04:00:12.293Z,37.83
2022-08-25T04:02:40.043Z,37.22
2022-08-25T04:05:07.496Z,36.53
2022-08-25T04:07:34.690Z,31.85
2022-08-25T04:10:01.228Z,42.00
2022-08-25T04:12:27.765Z,37.22
2022-08-25T04:14:54.226Z,34.38
2022-08-25T04:17:20.752Z,33.28
2022-08-25T04:19:47.266Z,42.92
2022-08-25T04:22:13.708Z,30.00
2022-08-25T04:24:40.416Z,34.75
2022-08-25T04:27:07.220Z,28.35
2022-08-25T04:29:33.879Z,28.23
2022-08-25T04:32:00.656Z,31.35
2022-08-25T04:34:30.098Z,25.50
2022-08-25T04:36:58.334Z,32.60
2022-08-25T04:39:24.796Z,37.55
2022-08-25T04:41:51.335Z,32.40
2022-08-25T04:44:18.118Z,28.33
2022-08-25T04:46:44.554Z,29.63
2022-08-25T04:49:11.425Z,30.42
2022-08-25T04:51:40.327Z,28.98
2022-08-25T04:54:11.067Z,23.77
2022-08-25T04:56:40.818Z,37.92
2022-08-25T04:59:11.323Z,29.02
2022-08-25T05:01:38.206Z,27.52
2022-08-25T05:04:08.046Z,31.48
2022-08-25T05:09:04.139Z,27.65
2022-08-25T05:11:31.997Z,26.15
2022-08-25T05:14:01.707Z,33.83
2022-08-25T05:16:28.866Z,26.42
2022-08-25T05:18:55.951Z,32.55
2022-08-25T05:21:26.293Z,27.65
2022-08-25T05:23:57.526Z,36.95
2022-08-25T05:26:26.600Z,25.02
2022-08-25T05:28:54.953Z,36.67
2022-08-25T05:31:23.331Z,48.17
2022-08-25T05:33:50.560Z,44.95
2022-08-25T05:36:18.132Z,30.42
2022-08-25T05:38:44.685Z,31.60
2022-08-25T05:41:16.392Z,28.45
2022-08-25T05:43:44.998Z,30.48
2022-08-25T05:46:12.744Z,27.60
2022-08-25T05:48:39.937Z,33.97
2022-08-25T05:51:10.917Z,32.80
2022-08-25T05:53:39.803Z,31.70
2022-08-25T05:56:06.416Z,30.70
2022-08-25T05:58:33.117Z,28.55
2022-08-25T06:01:20.237Z,26.48
2022-08-25T06:03:47.887Z,31.42
2022-08-25T06:06:16.014Z,30.27
2022-08-25T06:08:44.554Z,28.45
2022-08-25T06:11:12.642Z,32.40
2022-08-25T06:13:40.113Z,31.42
2022-08-25T06:16:07.086Z,33.22
2022-08-25T06:18:33.912Z,41.63
2022-08-25T06:21:07.612Z,41.63
2022-08-25T06:23:34.122Z,33.95
2022-08-25T06:26:00.716Z,36.22
2022-08-25T06:28:27.420Z,40.83
2022-08-25T06:30:58.322Z,42.50
2022-08-25T06:33:24.813Z,32.17
2022-08-25T06:35:55.973Z,38.15
2022-08-25T06:40:52.070Z,34.90
2022-08-25T06:43:21.996Z,32.30
2022-08-25T06:45:48.658Z,31.25
2022-08-25T06:48:15.654Z,32.58
2022-08-25T06:50:42.844Z,36.35
2022-08-25T06:53:09.519Z,30.88
2022-08-25T06:55:37.046Z,30.42
2022-08-25T06:58:04.970Z,27.17
2022-08-25T07:00:32.565Z,27.50
2022-08-25T07:03:01.368Z,27.45
2022-08-25T07:05:40.929Z,30.35
2022-08-25T07:08:11.645Z,27.42
2022-08-25T07:10:38.272Z,25.88
2022-08-25T07:13:04.805Z,28.35
2022-08-25T07:15:31.324Z,25.92
2022-08-25T07:17:57.798Z,27.00
2022-08-25T07:22:53.182Z,27.02
2022-08-25T07:25:19.654Z,31.35
2022-08-25T07:27:46.094Z,28.33
2022-08-25T07:30:14.190Z,27.65
2022-08-25T07:32:42.029Z,26.33
2022-08-25T07:35:19.149Z,27.90
2022-08-25T07:37:52.610Z,25.85
2022-08-25T07:40:23.428Z,23.80
2022-08-25T07:42:51.864Z,25.95
2022-08-25T07:45:20.766Z,28.85
2022-08-25T07:47:47.788Z,27.70
2022-08-25T07:50:14.636Z,27.70
2022-08-25T07:52:41.170Z,23.75
2022-08-25T07:55:10.958Z,29.85
2022-08-25T07:57:39.995Z,26.48
2022-08-25T08:00:07.986Z,24.17
2022-08-25T08:02:38.773Z,29.00
2022-08-25T08:05:09.558Z,24.60
2022-08-25T08:07:43.047Z,24.42
2022-08-25T08:10:42.148Z,24.23
2022-08-25T08:12:59.868Z,20.55
2022-08-25T08:15:29.940Z,24.35
2022-08-25T08:17:59.262Z,22.63
2022-08-25T08:20:26.340Z,25.83
2022-08-25T08:22:52.827Z,22.25
2022-08-25T08:25:26.472Z,23.38
2022-08-25T08:27:54.857Z,22.08
2022-08-25T08:30:34.392Z,25.95
2022-08-25T08:33:11.199Z,24.60
2022-08-25T08:35:40.080Z,21.52
2022-08-25T08:38:14.491Z,31.00
2022-08-25T08:41:13.648Z,23.20
2022-08-25T08:43:42.035Z,25.55
2022-08-25T08:46:08.531Z,24.17
2022-08-25T08:48:56.144Z,27.38
2022-08-25T08:51:32.931Z,24.35
2022-08-25T08:54:16.686Z,26.17
2022-08-25T08:57:13.150Z,22.90
2022-08-25T09:02:16.440Z,19.25
2022-08-25T09:05:08.140Z,22.60
2022-08-25T09:07:45.054Z,21.25
2022-08-25T09:10:16.112Z,23.67
2022-08-25T09:13:02.472Z,21.60
2022-08-25T09:16:07.605Z,22.25
2022-08-25T09:18:53.061Z,20.30
2022-08-25T09:21:31.783Z,20.95
2022-08-25T09:24:12.415Z,21.92
2022-08-25T09:27:07.691Z,21.75
2022-08-25T09:30:00.323Z,18.77
2022-08-25T09:32:34.766Z,23.35
2022-08-25T09:35:03.464Z,22.00
2022-08-25T09:37:30.358Z,20.10
2022-08-25T09:39:58.845Z,25.83
2022-08-25T09:42:46.121Z,23.48
2022-08-25T09:45:16.793Z,25.95
2022-08-25T09:47:45.449Z,21.50
2022-08-25T09:50:18.939Z,23.48
2022-08-25T09:52:45.966Z,22.77
2022-08-25T09:55:13.581Z,20.98
2022-08-25T09:57:44.208Z,21.20
2022-08-25T10:00:18.416Z,27.98
2022-08-25T10:03:06.076Z,26.63
2022-08-25T10:05:35.555Z,24.35
2022-08-25T10:08:10.689Z,19.30
2022-08-25T10:10:46.047Z,27.55
2022-08-25T10:13:15.629Z,21.23
2022-08-25T10:16:13.749Z,27.05
2022-08-25T10:19:25.877Z,23.40
2022-08-25T10:22:21.340Z,21.27
2022-08-25T10:24:49.028Z,24.65
2022-08-25T10:27:30.242Z,23.00
2022-08-25T10:30:06.971Z,23.25
2022-08-25T10:33:04.523Z,16.85
2022-08-25T10:35:52.351Z,20.92
2022-08-25T10:38:37.671Z,18.95
2022-08-25T10:41:37.088Z,19.83
2022-08-25T10:44:34.255Z,16.77
2022-08-25T10:47:38.571Z,14.50
2022-08-25T10:50:23.644Z,17.17
2022-08-25T10:53:13.255Z,19.15
2022-08-25T10:55:40.411Z,12.65
2022-08-25T10:58:21.102Z,15.80
2022-08-25T11:01:03.526Z,17.70
2022-08-25T11:04:08.813Z,17.50
2022-08-25T11:06:44.693Z,14.95
2022-08-25T11:09:16.158Z,12.77
2022-08-25T11:11:52.164Z,13.02
2022-08-25T11:14:24.740Z,18.67
2022-08-25T11:17:09.964Z,14.40
2022-08-25T11:19:41.282Z,16.65
2022-08-25T11:22:13.594Z,15.73
2022-08-25T11:25:02.219Z,14.52
2022-08-25T11:27:48.372Z,13.95
2022-08-25T11:30:18.859Z,12.00
2022-08-25T11:32:49.554Z,13.57
2022-08-25T11:35:19.325Z,11.10
2022-08-25T11:37:59.363Z,11.93
2022-08-25T11:40:41.302Z,14.23
2022-08-25T11:43:40.535Z,13.07
2022-08-25T11:46:22.055Z,10.73
2022-08-25T11:49:08.290Z,14.30
2022-08-25T11:51:45.036Z,10.25
2022-08-25T11:54:30.419Z,15.00
2022-08-25T11:57:02.305Z,14.32
2022-08-25T11:59:57.780Z,11.43
2022-08-25T12:05:57.640Z,13.07
2022-08-25T12:08:49.881Z,11.23
2022-08-25T12:11:44.345Z,11.07
2022-08-25T12:14:13.709Z,15.15
2022-08-25T12:16:55.575Z,15.93
2022-08-25T12:19:36.281Z,21.05
2022-08-25T12:22:03.631Z,11.43
2022-08-25T12:24:47.712Z,11.23
2022-08-25T12:27:44.317Z,15.73
2022-08-25T12:30:21.423Z,17.50
2022-08-25T12:33:20.152Z,16.55
2022-08-25T12:36:05.297Z,13.68
2022-08-25T12:38:51.852Z,16.90
2022-08-25T12:41:24.220Z,13.52
2022-08-25T12:43:54.396Z,16.55
2022-08-25T12:46:25.768Z,14.23
2022-08-25T12:49:04.114Z,12.30
2022-08-25T12:51:33.776Z,16.15
2022-08-25T12:54:16.002Z,14.00
2022-08-25T12:56:49.949Z,13.55
2022-08-25T12:59:19.853Z,14.40
2022-08-25T13:02:07.636Z,16.40
2022-08-25T13:04:56.815Z,10.68
2022-08-25T13:07:54.085Z,16.67
2022-08-25T13:10:48.776Z,15.07
2022-08-25T13:13:54.615Z,11.90
2022-08-25T13:16:29.105Z,14.25
2022-08-25T13:18:59.110Z,12.80
2022-08-25T13:21:31.146Z,15.32
2022-08-25T13:24:01.490Z,13.40
2022-08-25T13:26:34.373Z,12.40
2022-08-25T13:29:11.025Z,14.65
2022-08-25T13:31:49.977Z,15.85
2022-08-25T13:34:19.794Z,15.13
2022-08-25T13:39:54.984Z,14.50
2022-08-25T13:42:20.515Z,13.02
2022-08-25T13:44:54.918Z,14.23
2022-08-25T13:47:43.601Z,16.23
2022-08-25T13:50:21.275Z,13.02
2022-08-25T13:52:54.452Z,17.10
2022-08-25T13:55:27.736Z,19.42
2022-08-25T13:57:57.927Z,15.13
2022-08-25T14:00:32.477Z,16.90
2022-08-25T14:03:00.832Z,13.30
2022-08-25T14:05:33.498Z,11.65
2022-08-25T14:08:16.028Z,17.05
2022-08-25T14:10:49.736Z,14.50
2022-08-25T14:13:31.979Z,12.50
2022-08-25T14:16:11.273Z,11.70
2022-08-25T14:18:37.849Z,12.52
2022-08-25T14:21:11.064Z,13.90
2022-08-25T14:23:38.579Z,14.93
2022-08-25T14:26:06.371Z,11.88
2022-08-25T14:28:33.479Z,14.27
2022-08-25T14:31:02.372Z,11.98
2022-08-25T14:33:37.357Z,14.38
2022-08-25T14:36:06.803Z,12.43
2022-08-25T14:38:35.206Z,13.50
2022-08-25T14:41:01.752Z,13.18
2022-08-25T14:43:31.755Z,15.48
2022-08-25T14:48:34.711Z,15.85
2022-08-25T14:51:01.624Z,12.50
2022-08-25T14:53:28.877Z,14.63
2022-08-25T14:55:59.189Z,14.68
2022-08-25T14:58:27.001Z,14.98
2022-08-25T15:00:55.107Z,12.32
2022-08-25T15:03:29.498Z,11.27
2022-08-25T15:06:00.055Z,12.43
2022-08-25T15:08:45.323Z,12.43
2022-08-25T15:11:13.299Z,16.00
2022-08-25T15:13:40.144Z,13.68
2022-08-25T15:16:08.667Z,11.88
2022-08-25T15:18:36.455Z,14.05
2022-08-25T15:21:04.527Z,14.32
2022-08-25T15:23:30.960Z,13.73
2022-08-25T15:25:57.569Z,10.82
2022-08-25T15:28:24.213Z,13.00
2022-08-25T15:30:53.066Z,12.63
2022-08-25T15:33:19.519Z,10.10
2022-08-25T15:35:46.370Z,15.82
2022-08-25T15:38:13.051Z,12.95
2022-08-25T15:40:39.785Z,10.45
2022-08-25T15:43:06.944Z,16.33
2022-08-25T15:45:36.091Z,11.25
2022-08-25T15:48:06.797Z,19.45
2022-08-25T15:50:36.048Z,13.70
2022-08-25T15:53:02.690Z,15.00
2022-08-25T15:55:29.201Z,13.13
2022-08-25T15:57:55.656Z,17.25
2022-08-25T16:00:22.379Z,10.13
2022-08-25T16:02:49.701Z,10.77
2022-08-25T16:05:16.695Z,14.02
2022-08-25T16:07:45.873Z,13.00
2022-08-25T16:10:13.548Z,9.35
2022-08-25T16:12:40.198Z,12.63
2022-08-25T16:15:09.981Z,13.38
2022-08-25T16:17:40.802Z,13.88
2022-08-25T16:20:13.702Z,15.75
2022-08-25T16:22:40.772Z,14.75
2022-08-25T16:25:07.952Z,15.48
2022-08-25T16:27:38.540Z,13.23
2022-08-25T16:30:07.051Z,15.20
2022-08-25T16:32:33.507Z,16.20
2022-08-25T16:35:00.591Z,17.73
2022-08-25T16:37:27.398Z,11.38
2022-08-25T16:39:55.190Z,15.10
2022-08-25T16:42:21.737Z,16.67
2022-08-25T16:44:48.234Z,17.58
2022-08-25T16:47:20.769Z,18.58
2022-08-25T16:49:51.832Z,16.23
2022-08-25T16:52:37.403Z,15.15
2022-08-25T16:55:13.090Z,12.93
2022-08-25T16:57:41.355Z,18.42
2022-08-25T17:00:13.069Z,17.25
2022-08-25T17:02:40.686Z,15.13
2022-08-25T17:05:09.160Z,17.25
2022-08-25T17:07:36.261Z,17.75
2022-08-25T17:10:04.598Z,17.08
2022-08-25T17:12:32.156Z,14.38
2022-08-25T17:14:59.535Z,15.38
2022-08-25T17:17:27.123Z,14.82
2022-08-25T17:19:54.808Z,12.60
2022-08-25T17:22:22.534Z,22.63
2022-08-25T17:24:59.409Z,17.17
2022-08-25T17:27:27.929Z,17.23
2022-08-25T17:29:54.606Z,21.60
2022-08-25T17:32:28.696Z,21.92
2022-08-25T17:34:57.191Z,16.15
2022-08-25T17:37:24.126Z,19.13
2022-08-25T17:39:50.670Z,21.48
2022-08-25T17:42:30.393Z,14.02
2022-08-25T17:44:57.952Z,17.23
2022-08-25T17:47:24.445Z,17.23
2022-08-25T17:49:50.894Z,18.90
2022-08-25T17:52:17.370Z,14.65
2022-08-25T17:54:43.859Z,22.38
2022-08-25T17:57:11.020Z,14.18
2022-08-25T17:59:40.439Z,15.63
2022-08-25T18:02:07.545Z,16.27
2022-08-25T18:04:36.439Z,20.65
2022-08-25T18:07:04.810Z,16.75
2022-08-25T18:09:31.378Z,25.60
2022-08-25T18:12:00.586Z,25.30
2022-08-25T18:14:27.143Z,17.20
2022-08-25T18:16:54.710Z,16.98
2022-08-25T18:19:21.369Z,17.40
2022-08-25T18:21:49.049Z,18.75
2022-08-25T18:24:16.815Z,18.10
2022-08-25T18:26:43.384Z,17.38
2022-08-25T18:29:13.076Z,15.88
2022-08-25T18:31:42.126Z,16.30
2022-08-25T18:34:11.188Z,16.95
2022-08-25T18:36:38.820Z,19.23
2022-08-25T18:39:25.114Z,21.92
2022-08-25T18:41:51.739Z,20.42
2022-08-25T18:44:18.770Z,11.27
2022-08-25T18:46:46.018Z,19.05
2022-08-25T18:49:15.913Z,17.52
2022-08-25T18:51:44.604Z,18.13
2022-08-25T18:54:23.093Z,16.63
2022-08-25T18:56:51.099Z,20.02
2022-08-25T18:59:19.233Z,25.67
2022-08-25T19:01:46.001Z,14.55
2022-08-25T19:04:15.158Z,24.73
2022-08-25T19:06:43.900Z,22.30
2022-08-25T19:09:10.917Z,17.75
2022-08-25T19:11:38.369Z,19.05
2022-08-25T19:14:07.256Z,27.15
2022-08-25T19:16:41.497Z,23.00
2022-08-25T19:19:10.100Z,22.77
2022-08-25T19:21:38.175Z,24.55
2022-08-25T19:24:05.994Z,42.00
2022-08-25T19:26:34.354Z,30.17
2022-08-25T19:29:05.604Z,20.88
2022-08-25T19:31:36.489Z,17.98
2022-08-25T19:34:03.857Z,20.73
2022-08-25T19:36:30.699Z,17.95
2022-08-25T19:39:00.186Z,22.33
2022-08-25T19:41:28.424Z,18.58
2022-08-25T19:43:57.425Z,18.95
2022-08-25T19:46:32.353Z,17.08
2022-08-25T19:49:08.062Z,22.50
2022-08-25T19:51:37.068Z,22.80
2022-08-25T19:54:04.135Z,18.67
2022-08-25T19:56:32.869Z,20.90
2022-08-25T19:58:59.592Z,24.70
2022-08-25T20:01:26.175Z,23.73
2022-08-25T20:03:52.715Z,13.45
2022-08-25T20:06:19.467Z,20.00
2022-08-25T20:08:48.108Z,18.27
2022-08-25T20:11:29.093Z,18.05
2022-08-25T20:13:58.156Z,16.30
2022-08-25T20:16:28.091Z,15.48
2022-08-25T20:18:54.560Z,19.70
2022-08-25T20:21:21.267Z,17.13
2022-08-25T20:24:06.398Z,24.40
2022-08-25T20:26:32.844Z,16.73
2022-08-25T20:28:59.510Z,17.77
2022-08-25T20:31:26.180Z,21.20
2022-08-25T20:33:52.657Z,24.63
2022-08-25T20:36:19.353Z,18.38
2022-08-25T20:38:45.924Z,18.20
2022-08-25T20:41:13.415Z,19.42
2022-08-25T20:43:40.917Z,18.65
2022-08-25T20:46:08.365Z,23.02
2022-08-25T20:48:35.628Z,23.33
2022-08-25T20:51:06.277Z,18.75
2022-08-25T20:53:38.298Z,20.77
2022-08-25T20:56:13.259Z,24.13
2022-08-25T20:58:41.739Z,20.70
2022-08-25T21:01:20.264Z,17.25
2022-08-25T21:03:53.775Z,17.67
2022-08-25T21:06:22.107Z,19.15
2022-08-25T21:08:49.108Z,21.35
2022-08-25T21:11:17.602Z,17.25
2022-08-25T21:13:45.655Z,21.05
2022-08-25T21:16:12.146Z,24.52
2022-08-25T21:18:48.154Z,15.52
2022-08-25T21:21:16.648Z,22.33
2022-08-25T21:23:49.310Z,18.77
2022-08-25T21:26:19.863Z,21.20
2022-08-25T21:28:47.511Z,17.73
2022-08-25T21:31:15.393Z,19.35
2022-08-25T21:33:42.630Z,21.38
2022-08-25T21:36:11.519Z,19.13
2022-08-25T21:38:40.003Z,21.45
2022-08-25T21:41:15.675Z,17.00
2022-08-25T21:43:43.154Z,16.33
2022-08-25T21:46:13.285Z,18.10
2022-08-25T21:48:40.240Z,19.98
2022-08-25T21:51:12.414Z,15.43
2022-08-25T21:53:38.998Z,18.17
2022-08-25T21:56:07.918Z,21.77
2022-08-25T21:58:36.180Z,18.83
2022-08-25T22:01:11.913Z,24.83
2022-08-25T22:03:40.956Z,17.80
2022-08-25T22:06:11.216Z,20.15
2022-08-25T22:08:39.732Z,19.92
2022-08-25T22:11:12.449Z,19.83
2022-08-25T22:13:41.241Z,19.35
2022-08-25T22:16:12.451Z,20.38
2022-08-25T22:18:39.822Z,20.13
2022-08-25T22:21:09.645Z,24.00
2022-08-25T22:23:40.002Z,16.88
2022-08-25T22:26:15.896Z,14.98
2022-08-25T22:28:47.508Z,22.17
2022-08-25T22:31:20.521Z,22.00
2022-08-25T22:33:48.771Z,17.52
2022-08-25T22:36:21.881Z,20.90
2022-08-25T22:38:48.744Z,17.70
2022-08-25T22:41:19.104Z,20.30
2022-08-25T22:43:51.104Z,18.10
2022-08-25T22:46:19.576Z,24.17
2022-08-25T22:48:46.267Z,19.42
2022-08-25T22:51:26.030Z,17.90
2022-08-25T22:53:54.003Z,19.88
2022-08-25T22:56:29.780Z,33.75
2022-08-25T22:58:59.146Z,17.95
2022-08-25T23:01:25.798Z,17.30
2022-08-25T23:03:52.790Z,18.23
2022-08-25T23:06:25.001Z,23.20
2022-08-25T23:08:53.683Z,18.02
2022-08-25T23:11:21.912Z,31.00
2022-08-25T23:13:48.956Z,25.35
2022-08-25T23:16:16.943Z,17.33
2022-08-25T23:18:46.929Z,16.13
2022-08-25T23:21:35.030Z,19.10
2022-08-25T23:24:05.696Z,19.30
2022-08-25T23:26:33.590Z,23.92
2022-08-25T23:29:00.271Z,18.10
2022-08-25T23:31:26.760Z,20.88
2022-08-25T23:33:55.001Z,19.75
2022-08-25T23:36:21.860Z,21.33
2022-08-25T23:38:51.531Z,19.13
2022-08-25T23:41:21.407Z,15.73
2022-08-25T23:43:49.702Z,15.63
2022-08-25T23:46:18.530Z,16.17
2022-08-25T23:48:47.280Z,20.70
2022-08-25T23:51:22.586Z,19.80
2022-08-25T23:53:51.230Z,20.70
2022-08-25T23:56:18.160Z,19.83
2022-08-25T23:58:45.269Z,13.43
